Time;durP1;ratioP1;P1;durP2;ratioP2;P2;SDS_P1;SDS_P2;PMS_P1;PMS_P2;Temp;Humidity;BMP_temperature;BMP_pressure;BME280_temperature;BME280_humidity;BME280_pressure;Samples;Min_cycle;Max_cycle;Signal;HPM_P1;HPM_P2
2023/04/23 00:01:47;;;;;;;47.70;20.52;;;11.00;94.20;;;;;;5112027;28;20097;-73
2023/04/23 00:04:17;;;;;;;51.20;20.23;;;11.00;94.20;;;;;;5113106;28;20032;-73
2023/04/23 00:06:45;;;;;;;47.85;19.92;;;11.00;94.30;;;;;;5114290;28;20024;-73
2023/04/23 00:09:13;;;;;;;50.25;18.98;;;10.90;94.30;;;;;;5116898;28;20073;-73
2023/04/23 00:11:39;;;;;;;44.10;17.95;;;10.80;94.30;;;;;;5115872;28;20065;-73
2023/04/23 00:14:05;;;;;;;43.03;18.05;;;10.80;93.90;;;;;;5116885;28;20020;-73
2023/04/23 00:16:31;;;;;;;44.80;17.52;;;10.70;94.30;;;;;;5115894;28;20024;-73
2023/04/23 00:18:56;;;;;;;45.15;18.45;;;10.70;94.40;;;;;;5116815;28;20028;-73
2023/04/23 00:21:22;;;;;;;42.58;16.83;;;10.70;94.40;;;;;;5115865;28;20028;-73
2023/04/23 00:23:48;;;;;;;41.95;16.90;;;10.80;94.50;;;;;;5116651;28;20039;-73
2023/04/23 00:26:13;;;;;;;41.70;16.63;;;10.80;94.40;;;;;;5098705;28;20035;-73
2023/04/23 00:28:39;;;;;;;42.15;17.00;;;10.80;94.30;;;;;;5116512;28;20054;-73
2023/04/23 00:31:06;;;;;;;46.15;17.65;;;10.80;94.30;;;;;;5115506;28;20040;-73
2023/04/23 00:33:32;;;;;;;41.65;17.33;;;10.80;94.10;;;;;;5098635;28;20024;-73
2023/04/23 00:35:57;;;;;;;40.00;16.40;;;10.80;94.00;;;;;;5116449;28;20032;-73
2023/04/23 00:38:25;;;;;;;49.58;19.02;;;10.70;94.00;;;;;;5116452;28;20024;-73
2023/04/23 00:40:51;;;;;;;40.67;16.25;;;10.70;94.10;;;;;;5116407;28;20422;-73
2023/04/23 00:43:18;;;;;;;41.83;16.05;;;10.60;94.00;;;;;;5116356;28;20028;-73
2023/04/23 00:45:43;;;;;;;42.88;17.15;;;10.40;94.30;;;;;;5115310;28;20070;-73
2023/04/23 00:48:10;;;;;;;44.63;16.70;;;10.40;94.40;;;;;;5115226;28;20024;-73
2023/04/23 00:50:36;;;;;;;37.35;15.75;;;10.50;94.50;;;;;;5115184;28;20091;-73
2023/04/23 00:53:02;;;;;;;38.90;15.65;;;10.50;94.50;;;;;;5116093;28;20032;-73
2023/04/23 00:55:28;;;;;;;38.22;15.90;;;10.60;94.60;;;;;;5116104;28;20039;-73
2023/04/23 00:57:54;;;;;;;38.92;16.95;;;10.70;94.60;;;;;;5116037;28;20044;-73
2023/04/23 01:00:20;;;;;;;44.05;18.70;;;10.70;94.50;;;;;;5116016;28;20031;-73
2023/04/23 01:02:49;;;;;;;41.30;18.10;;;10.80;94.90;;;;;;5115625;28;20078;-73
2023/04/23 01:05:16;;;;;;;46.42;18.52;;;10.70;94.70;;;;;;5115894;28;20032;-73
2023/04/23 01:07:43;;;;;;;44.05;18.63;;;10.70;94.80;;;;;;5115800;28;20020;-73
2023/04/23 01:10:10;;;;;;;43.08;18.48;;;10.70;95.00;;;;;;5115825;28;20023;-73
2023/04/23 01:12:36;;;;;;;45.97;19.20;;;10.70;95.00;;;;;;5114721;28;20016;-73
2023/04/23 01:15:03;;;;;;;45.70;19.25;;;10.80;95.00;;;;;;5115720;28;20025;-73
2023/04/23 01:17:28;;;;;;;45.03;17.77;;;10.90;94.80;;;;;;5115383;28;20021;-73
2023/04/23 01:19:55;;;;;;;43.65;18.05;;;10.80;94.40;;;;;;5097882;28;20050;-73
2023/04/23 01:22:21;;;;;;;45.25;18.80;;;10.80;94.30;;;;;;5115614;28;20025;-73
2023/04/23 01:24:46;;;;;;;47.03;19.33;;;10.80;94.40;;;;;;5115512;28;20082;-73
2023/04/23 01:27:12;;;;;;;52.85;19.58;;;10.80;94.50;;;;;;5115491;28;20020;-73
2023/04/23 01:29:39;;;;;;;43.38;18.35;;;10.80;94.60;;;;;;5115472;28;20035;-73
2023/04/23 01:32:06;;;;;;;47.78;20.02;;;10.80;94.60;;;;;;5114455;28;20051;-73
2023/04/23 01:34:33;;;;;;;41.97;18.13;;;10.80;94.60;;;;;;5115257;28;20028;-73
2023/04/23 01:36:59;;;;;;;44.80;18.67;;;10.80;94.70;;;;;;5115277;28;20016;-73
2023/04/23 01:39:25;;;;;;;42.08;17.85;;;10.80;94.70;;;;;;5115256;28;20028;-73
2023/04/23 01:41:52;;;;;;;43.40;17.60;;;10.80;95.00;;;;;;5115159;28;20467;-73
2023/04/23 01:44:18;;;;;;;43.22;17.80;;;10.80;95.00;;;;;;5115087;28;20035;-73
2023/04/23 01:46:43;;;;;;;39.22;18.58;;;10.80;95.00;;;;;;5115081;28;20032;-73
2023/04/23 01:49:09;;;;;;;40.35;17.05;;;10.80;95.20;;;;;;5114110;28;20058;-73
2023/04/23 01:51:35;;;;;;;41.10;16.73;;;10.80;95.40;;;;;;5114998;28;20020;-73
2023/04/23 01:54:01;;;;;;;37.83;18.10;;;10.80;95.30;;;;;;5114922;28;20028;-73
2023/04/23 01:56:29;;;;;;;41.80;17.45;;;10.80;95.40;;;;;;5114850;28;20032;-73
2023/04/23 01:58:55;;;;;;;40.83;18.02;;;10.70;95.60;;;;;;5114906;28;20103;-73
2023/04/23 02:01:21;;;;;;;43.50;17.58;;;10.70;95.70;;;;;;5114605;28;20040;-73
2023/04/23 02:03:49;;;;;;;39.53;16.40;;;10.70;95.80;;;;;;5113730;28;20028;-73
2023/04/23 02:06:16;;;;;;;39.33;16.52;;;10.70;95.80;;;;;;5114734;28;20039;-73
2023/04/23 02:08:42;;;;;;;38.80;16.48;;;10.70;95.80;;;;;;5114607;28;20051;-73
2023/04/23 02:11:08;;;;;;;34.50;16.23;;;10.70;95.90;;;;;;5114592;28;20028;-73
2023/04/23 02:13:33;;;;;;;34.60;15.77;;;10.70;96.00;;;;;;5114573;28;20054;-73
2023/04/23 02:15:59;;;;;;;34.38;15.77;;;10.60;96.30;;;;;;5113487;28;20020;-73
2023/04/23 02:18:25;;;;;;;33.42;15.45;;;10.60;96.20;;;;;;5113518;28;20039;-73
2023/04/23 02:20:51;;;;;;;32.75;14.70;;;10.60;96.20;;;;;;5114386;28;20043;-73
2023/04/23 02:23:16;;;;;;;33.45;14.98;;;10.70;96.20;;;;;;5096517;28;20036;-73
2023/04/23 02:25:42;;;;;;;36.55;15.68;;;10.70;96.10;;;;;;5114347;28;20115;-73
2023/04/23 02:28:10;;;;;;;34.42;15.95;;;10.70;96.20;;;;;;5114193;28;20046;-73
2023/04/23 02:30:36;;;;;;;31.33;14.43;;;10.70;96.40;;;;;;5113662;28;20017;-73
2023/04/23 02:33:02;;;;;;;30.23;14.93;;;10.70;96.20;;;;;;5113268;28;20017;-73
2023/04/23 02:35:28;;;;;;;36.45;15.82;;;10.70;96.20;;;;;;5113111;28;20020;-73
2023/04/23 02:37:54;;;;;;;37.15;16.00;;;10.70;96.20;;;;;;5114139;28;20024;-73
2023/04/23 02:40:20;;;;;;;32.90;16.23;;;10.70;96.30;;;;;;5096253;28;20035;-73
2023/04/23 02:42:46;;;;;;;35.13;15.15;;;10.70;96.30;;;;;;5114088;28;20028;-73
2023/04/23 02:45:12;;;;;;;32.25;15.35;;;10.70;96.20;;;;;;5113970;28;20028;-73
2023/04/23 02:47:38;;;;;;;33.85;15.77;;;10.80;96.20;;;;;;5112842;28;20040;-73
2023/04/23 02:50:05;;;;;;;36.63;15.52;;;10.80;96.20;;;;;;5113902;28;20031;-73
2023/04/23 02:52:31;;;;;;;32.88;14.63;;;10.80;96.30;;;;;;5112855;28;20020;-73
2023/04/23 02:54:57;;;;;;;32.85;14.70;;;10.80;96.20;;;;;;5112983;28;20093;-73
2023/04/23 02:57:23;;;;;;;34.08;15.32;;;10.80;96.20;;;;;;5113846;28;20043;-73
2023/04/23 02:59:49;;;;;;;33.17;14.68;;;10.70;96.20;;;;;;5112747;28;20432;-73
2023/04/23 03:02:15;;;;;;;31.27;14.95;;;10.70;96.20;;;;;;5113607;28;20055;-73
2023/04/23 03:04:41;;;;;;;35.20;15.65;;;10.60;96.20;;;;;;5113657;28;20028;-73
2023/04/23 03:07:06;;;;;;;35.13;15.88;;;10.60;96.30;;;;;;5113694;28;20026;-73
2023/04/23 03:09:32;;;;;;;35.53;15.18;;;10.70;96.70;;;;;;5113565;28;20028;-73
2023/04/23 03:11:58;;;;;;;34.05;14.45;;;10.70;96.30;;;;;;5113624;28;20028;-73
2023/04/23 03:14:23;;;;;;;32.10;14.77;;;10.70;96.40;;;;;;5113721;28;20039;-73
2023/04/23 03:16:49;;;;;;;34.72;14.52;;;10.60;96.30;;;;;;5112527;28;20050;-73
2023/04/23 03:19:15;;;;;;;33.20;14.70;;;10.60;96.40;;;;;;5112593;28;20039;-73
2023/04/23 03:21:41;;;;;;;30.58;14.65;;;10.60;96.40;;;;;;5113528;28;20032;-73
2023/04/23 03:24:06;;;;;;;29.02;14.05;;;10.60;96.40;;;;;;5112417;28;20027;-73
2023/04/23 03:26:33;;;;;;;27.10;13.68;;;10.50;96.70;;;;;;5113473;28;20020;-73
2023/04/23 03:28:59;;;;;;;30.08;15.13;;;10.50;96.80;;;;;;5113497;28;20088;-73
2023/04/23 03:31:24;;;;;;;28.95;14.63;;;10.60;96.80;;;;;;5112430;28;20028;-73
2023/04/23 03:33:50;;;;;;;31.42;13.93;;;10.60;96.70;;;;;;5113271;28;20024;-73
2023/04/23 03:36:16;;;;;;;29.40;14.48;;;10.60;96.90;;;;;;5112299;28;20028;-73
2023/04/23 03:38:41;;;;;;;26.55;13.10;;;10.50;96.80;;;;;;5113323;28;20042;-73
2023/04/23 03:41:07;;;;;;;28.60;14.10;;;10.50;97.00;;;;;;5115238;28;20036;-73
2023/04/23 03:43:32;;;;;;;28.50;14.15;;;10.50;96.90;;;;;;5117482;28;20025;-73
2023/04/23 03:45:58;;;;;;;27.85;14.40;;;10.50;97.00;;;;;;5116382;28;20038;-73
2023/04/23 03:48:24;;;;;;;33.22;13.77;;;10.40;97.20;;;;;;5099363;28;20057;-73
2023/04/23 03:50:49;;;;;;;28.10;13.65;;;10.40;97.30;;;;;;5117338;28;20024;-73
2023/04/23 03:53:16;;;;;;;30.13;13.63;;;10.40;97.20;;;;;;5117305;28;20016;-73
2023/04/23 03:55:42;;;;;;;31.35;14.25;;;10.50;97.20;;;;;;5116258;28;20024;-73
2023/04/23 03:58:08;;;;;;;27.00;13.70;;;10.60;97.10;;;;;;5117194;28;20036;-73
2023/04/23 04:00:34;;;;;;;25.55;13.32;;;10.60;97.20;;;;;;5117143;28;20028;-73
2023/04/23 04:03:00;;;;;;;27.90;13.57;;;10.60;97.10;;;;;;5117071;28;20074;-73
2023/04/23 04:05:27;;;;;;;27.25;13.73;;;10.60;97.10;;;;;;5117233;28;20024;-73
2023/04/23 04:07:53;;;;;;;28.73;14.07;;;10.60;97.10;;;;;;5116985;28;20035;-73
2023/04/23 04:10:19;;;;;;;23.38;12.15;;;10.60;97.70;;;;;;5116027;28;20020;-73
2023/04/23 04:12:46;;;;;;;30.52;14.10;;;10.50;97.50;;;;;;5116955;28;20035;-73
2023/04/23 04:15:12;;;;;;;29.55;13.95;;;10.50;97.60;;;;;;5116905;28;20024;-73
2023/04/23 04:17:38;;;;;;;23.95;12.35;;;10.50;97.60;;;;;;5116861;28;20048;-73
2023/04/23 04:20:07;;;;;;;25.23;12.50;;;10.60;97.60;;;;;;5098856;28;20051;-73
2023/04/23 04:22:33;;;;;;;24.92;12.43;;;10.50;97.60;;;;;;5115773;28;20024;-73
2023/04/23 04:24:58;;;;;;;25.88;13.68;;;10.50;97.90;;;;;;5116836;28;20024;-73
2023/04/23 04:27:24;;;;;;;24.45;12.40;;;10.50;98.10;;;;;;5115692;28;20028;-73
2023/04/23 04:29:50;;;;;;;22.20;11.30;;;10.60;98.00;;;;;;5116644;28;20017;-73
2023/04/23 04:32:16;;;;;;;21.52;11.60;;;10.60;98.10;;;;;;5116611;28;20020;-73
2023/04/23 04:34:42;;;;;;;23.83;11.85;;;10.60;98.30;;;;;;5116424;28;20055;-73
2023/04/23 04:37:09;;;;;;;22.70;11.25;;;10.60;98.40;;;;;;5116440;28;20121;-73
2023/04/23 04:39:35;;;;;;;22.65;11.82;;;10.60;98.50;;;;;;5116503;28;20030;-73
2023/04/23 04:42:01;;;;;;;23.45;11.50;;;10.60;98.50;;;;;;5116345;28;20032;-73
2023/04/23 04:44:27;;;;;;;23.95;10.77;;;10.70;98.60;;;;;;5115301;28;20020;-73
2023/04/23 04:46:53;;;;;;;20.00;11.57;;;10.60;98.80;;;;;;5116333;28;20042;-73
2023/04/23 04:49:20;;;;;;;20.45;10.68;;;10.60;99.00;;;;;;5098170;28;20115;-73
2023/04/23 04:51:46;;;;;;;23.25;11.52;;;10.60;99.00;;;;;;5115014;28;20092;-73
2023/04/23 04:54:12;;;;;;;24.38;11.57;;;10.60;99.10;;;;;;5115806;28;20012;-73
2023/04/23 04:56:38;;;;;;;23.05;12.60;;;10.60;99.20;;;;;;5116065;28;20042;-73
2023/04/23 04:59:03;;;;;;;22.63;12.23;;;10.60;99.10;;;;;;5116056;28;20027;-73
2023/04/23 05:01:30;;;;;;;22.48;11.70;;;10.70;99.10;;;;;;5114706;28;20048;-73
2023/04/23 05:03:56;;;;;;;22.05;11.10;;;10.70;98.90;;;;;;5115981;28;20028;-73
2023/04/23 05:06:22;;;;;;;21.65;10.98;;;10.70;98.90;;;;;;5115926;28;20197;-73
2023/04/23 05:08:47;;;;;;;24.13;11.75;;;10.70;98.90;;;;;;5115818;28;20020;-73
2023/04/23 05:11:14;;;;;;;20.13;10.60;;;10.70;98.90;;;;;;5115823;28;20024;-73
2023/04/23 05:13:40;;;;;;;24.50;11.27;;;10.70;98.80;;;;;;5115784;28;20415;-73
2023/04/23 05:16:06;;;;;;;19.20;10.75;;;10.70;98.70;;;;;;5115775;28;20024;-73
2023/04/23 05:18:32;;;;;;;20.80;10.82;;;10.70;98.70;;;;;;5115668;28;20020;-73
2023/04/23 05:20:57;;;;;;;20.38;10.93;;;10.60;98.40;;;;;;5115620;28;20040;-73
2023/04/23 05:23:23;;;;;;;21.45;11.27;;;10.60;98.60;;;;;;5115583;28;20039;-73
2023/04/23 05:25:52;;;;;;;22.65;10.57;;;10.60;98.90;;;;;;5097810;28;20035;-73
2023/04/23 05:28:17;;;;;;;21.25;11.13;;;10.60;99.20;;;;;;5114446;28;20031;-73
2023/04/23 05:30:43;;;;;;;19.55;10.77;;;10.60;99.40;;;;;;5114488;28;20024;-73
2023/04/23 05:33:08;;;;;;;22.13;11.68;;;10.70;99.60;;;;;;5115317;28;20039;-73
2023/04/23 05:35:34;;;;;;;21.75;11.55;;;10.70;99.50;;;;;;5115360;28;20044;-73
2023/04/23 05:38:01;;;;;;;21.17;10.75;;;10.70;99.50;;;;;;5115316;28;20119;-73
2023/04/23 05:40:27;;;;;;;21.67;11.13;;;10.80;99.60;;;;;;5114341;28;20024;-73
2023/04/23 05:42:52;;;;;;;22.70;10.82;;;10.80;99.50;;;;;;5115201;28;20024;-73
2023/04/23 05:45:18;;;;;;;22.98;11.50;;;10.80;99.40;;;;;;5114155;28;20040;-73
2023/04/23 05:47:43;;;;;;;23.00;12.02;;;10.80;99.30;;;;;;5115021;28;20032;-73
2023/04/23 05:50:10;;;;;;;19.83;10.02;;;10.80;99.60;;;;;;5114899;28;20077;-73
2023/04/23 05:52:36;;;;;;;21.08;11.63;;;10.90;99.70;;;;;;5113949;28;20084;-73
2023/04/23 05:55:02;;;;;;;21.30;11.55;;;10.90;99.90;;;;;;5114955;28;20020;-73
2023/04/23 05:57:27;;;;;;;20.08;11.32;;;10.90;99.90;;;;;;5114935;28;20024;-73
2023/04/23 05:59:53;;;;;;;22.00;12.00;;;11.00;99.90;;;;;;5114841;28;20031;-73
2023/04/23 06:02:19;;;;;;;20.92;11.45;;;11.10;99.90;;;;;;5114581;28;20056;-73
2023/04/23 06:04:44;;;;;;;24.88;11.73;;;11.10;99.90;;;;;;5113785;28;20072;-73
2023/04/23 06:07:11;;;;;;;19.55;10.98;;;11.20;99.90;;;;;;5114828;28;20025;-73
2023/04/23 06:09:36;;;;;;;20.45;10.70;;;11.20;99.90;;;;;;5113722;28;20040;-73
2023/04/23 06:12:02;;;;;;;24.35;12.02;;;11.20;99.90;;;;;;5113535;28;20020;-73
2023/04/23 06:14:28;;;;;;;19.83;10.38;;;11.30;99.90;;;;;;5114722;28;20032;-73
2023/04/23 06:16:54;;;;;;;20.00;10.88;;;11.30;99.90;;;;;;5114562;28;20046;-73
2023/04/23 06:19:20;;;;;;;21.98;10.77;;;11.30;99.90;;;;;;5114466;28;20032;-73
2023/04/23 06:21:45;;;;;;;19.88;10.55;;;11.30;99.90;;;;;;5114494;28;20028;-73
2023/04/23 06:24:11;;;;;;;19.30;11.02;;;11.40;99.90;;;;;;5113410;28;20103;-73
2023/04/23 06:26:37;;;;;;;19.38;10.90;;;11.50;99.90;;;;;;5114500;28;20035;-73
2023/04/23 06:29:02;;;;;;;20.10;10.45;;;11.50;99.90;;;;;;5114011;28;20036;-73
2023/04/23 06:31:28;;;;;;;20.35;10.52;;;11.60;99.90;;;;;;5114264;28;20024;-73
2023/04/23 06:33:54;;;;;;;18.75;10.63;;;11.60;99.90;;;;;;5113255;28;20450;-73
2023/04/23 06:36:20;;;;;;;20.38;10.05;;;11.70;99.90;;;;;;5114235;28;20020;-74
2023/04/23 06:38:45;;;;;;;22.30;10.98;;;11.80;99.90;;;;;;5114147;28;20032;-73
2023/04/23 06:41:12;;;;;;;19.13;10.18;;;11.80;99.80;;;;;;5114211;28;20032;-73
2023/04/23 06:43:38;;;;;;;18.23;9.65;;;11.80;99.40;;;;;;5114029;28;20020;-73
2023/04/23 06:46:03;;;;;;;20.20;10.68;;;11.90;99.20;;;;;;5113092;28;20030;-74
2023/04/23 06:48:31;;;;;;;17.17;9.45;;;12.00;99.40;;;;;;5113888;28;20028;-74
2023/04/23 06:50:57;;;;;;;14.65;8.07;;;12.00;99.20;;;;;;5114139;28;20084;-75
2023/04/23 06:53:22;;;;;;;19.65;10.13;;;12.10;99.00;;;;;;5112958;28;20032;-73
2023/04/23 06:55:49;;;;;;;16.75;8.18;;;12.10;98.90;;;;;;5113848;28;20055;-75
2023/04/23 06:58:14;;;;;;;17.38;9.85;;;12.10;98.70;;;;;;5112841;28;20024;-74
2023/04/23 07:00:40;;;;;;;18.38;9.30;;;12.20;98.80;;;;;;5113760;28;20032;-74
2023/04/23 07:03:06;;;;;;;15.15;8.82;;;12.30;99.50;;;;;;5113468;28;20044;-73
2023/04/23 07:05:32;;;;;;;19.67;9.20;;;12.40;98.60;;;;;;5113728;28;20121;-74
2023/04/23 07:07:57;;;;;;;17.65;9.13;;;12.40;98.60;;;;;;5095751;28;20039;-73
2023/04/23 07:10:24;;;;;;;15.05;8.32;;;12.50;98.00;;;;;;5113657;28;20020;-73
2023/04/23 07:12:49;;;;;;;16.55;8.50;;;12.50;98.20;;;;;;5095824;28;20024;-73
2023/04/23 07:15:15;;;;;;;17.70;9.18;;;12.60;97.90;;;;;;5113355;28;20024;-73
2023/04/23 07:17:41;;;;;;;16.13;8.40;;;12.70;99.00;;;;;;5113370;28;20031;-73
2023/04/23 07:20:08;;;;;;;15.23;9.43;;;12.80;98.10;;;;;;5112667;28;20017;-73
2023/04/23 07:22:33;;;;;;;12.80;7.53;;;12.80;97.10;;;;;;5113682;28;20024;-73
2023/04/23 07:25:04;;;;;;;13.65;7.78;;;12.90;98.20;;;;;;5112691;28;20021;-73
2023/04/23 07:27:30;;;;;;;13.55;7.55;;;12.90;97.80;;;;;;5112568;28;20035;-73
2023/04/23 07:29:55;;;;;;;12.98;7.63;;;13.00;98.10;;;;;;5113409;28;20020;-73
2023/04/23 07:32:24;;;;;;;13.38;7.47;;;13.00;97.30;;;;;;5095568;28;20020;-73
2023/04/23 07:34:50;;;;;;;19.85;9.40;;;13.00;97.40;;;;;;5113290;28;20017;-73
2023/04/23 07:37:16;;;;;;;12.82;6.80;;;13.10;97.30;;;;;;5113316;28;20104;-73
2023/04/23 07:39:41;;;;;;;10.40;6.00;;;13.20;97.00;;;;;;5113296;28;20115;-74
2023/04/23 07:42:07;;;;;;;11.65;6.95;;;13.20;97.30;;;;;;5112453;28;20039;-73
2023/04/23 07:44:32;;;;;;;14.05;7.15;;;13.30;96.80;;;;;;5112311;28;20486;-73
2023/04/23 07:46:59;;;;;;;15.10;8.02;;;13.40;96.80;;;;;;5112352;28;20036;-73
2023/04/23 07:49:24;;;;;;;10.88;6.03;;;13.50;97.40;;;;;;5112254;28;20123;-73
2023/04/23 07:51:50;;;;;;;13.00;6.78;;;13.50;96.40;;;;;;5112274;28;20028;-73
2023/04/23 07:54:16;;;;;;;11.00;6.05;;;13.60;96.60;;;;;;5111929;28;20032;-73
2023/04/23 07:56:42;;;;;;;13.30;6.97;;;13.60;96.20;;;;;;5113155;28;20013;-73
2023/04/23 07:59:08;;;;;;;10.27;5.30;;;13.60;95.90;;;;;;5113142;28;20038;-73
2023/04/23 08:01:34;;;;;;;11.98;6.10;;;13.70;95.50;;;;;;5112969;28;20036;-74
2023/04/23 08:04:00;;;;;;;8.05;4.75;;;13.90;95.70;;;;;;5113244;28;20121;-73
2023/04/23 08:06:28;;;;;;;10.70;5.20;;;13.90;95.30;;;;;;5112248;28;20039;-73
2023/04/23 08:08:54;;;;;;;9.45;4.97;;;13.90;95.40;;;;;;5111978;28;20031;-73
2023/04/23 08:11:20;;;;;;;8.57;4.03;;;14.00;95.60;;;;;;5112134;28;20028;-73
2023/04/23 08:13:46;;;;;;;7.60;4.85;;;14.00;94.80;;;;;;5113038;28;20032;-73
2023/04/23 08:16:12;;;;;;;10.02;4.55;;;14.10;94.60;;;;;;5113119;28;20032;-73
2023/04/23 08:18:37;;;;;;;5.85;3.35;;;14.10;94.70;;;;;;5111908;28;20050;-74
2023/04/23 08:21:03;;;;;;;7.18;3.80;;;14.20;94.00;;;;;;5078301;28;20123;-73
2023/04/23 08:23:29;;;;;;;9.73;4.28;;;14.20;94.10;;;;;;5112860;28;20048;-73
2023/04/23 08:25:55;;;;;;;10.07;5.28;;;14.30;94.10;;;;;;5112804;28;20024;-73
2023/04/23 08:28:20;;;;;;;10.05;3.90;;;14.40;93.60;;;;;;5114802;28;20114;-73
2023/04/23 08:30:46;;;;;;;8.13;3.97;;;14.40;94.00;;;;;;5115669;28;20028;-74
2023/04/23 08:33:12;;;;;;;10.52;3.83;;;14.50;93.50;;;;;;5116465;28;20024;-73
2023/04/23 08:35:38;;;;;;;7.75;3.40;;;14.60;93.40;;;;;;5115599;28;20027;-74
2023/04/23 08:38:03;;;;;;;6.80;3.47;;;14.60;92.20;;;;;;5116500;28;20024;-73
2023/04/23 08:40:31;;;;;;;7.18;3.45;;;14.70;92.90;;;;;;5098505;28;20024;-73
2023/04/23 08:43:00;;;;;;;6.40;3.40;;;14.70;92.30;;;;;;5116399;28;20028;-74
2023/04/23 08:45:27;;;;;;;7.72;2.80;;;14.70;92.10;;;;;;5115381;28;20020;-73
2023/04/23 08:48:00;;;;;;;6.40;2.72;;;14.80;92.00;;;;;;5116242;28;20034;-73
2023/04/23 08:50:28;;;;;;;12.75;3.58;;;14.90;91.40;;;;;;5116438;28;20020;-73
2023/04/23 08:52:55;;;;;;;8.48;2.63;;;15.00;91.80;;;;;;5116230;28;20031;-73
2023/04/23 08:55:22;;;;;;;8.45;3.20;;;15.10;91.50;;;;;;5115240;28;20043;-73
2023/04/23 08:57:49;;;;;;;8.55;2.55;;;15.20;91.80;;;;;;5116102;28;20025;-74
2023/04/23 09:00:19;;;;;;;4.10;2.13;;;15.30;90.90;;;;;;5116073;28;20046;-73
2023/04/23 09:02:48;;;;;;;6.93;2.15;;;15.40;90.30;;;;;;5115866;28;20044;-74
2023/04/23 09:05:14;;;;;;;4.97;2.63;;;15.40;89.70;;;;;;5116002;28;20050;-73
2023/04/23 09:07:41;;;;;;;7.72;2.38;;;15.40;89.70;;;;;;5115760;28;20047;-73
2023/04/23 09:10:10;;;;;;;6.65;2.17;;;15.50;89.40;;;;;;5115878;28;20024;-74
2023/04/23 09:12:39;;;;;;;6.05;2.08;;;15.70;88.90;;;;;;5115851;28;20016;-75
2023/04/23 09:15:09;;;;;;;7.50;2.58;;;15.70;90.00;;;;;;5115777;28;20016;-75
2023/04/23 09:17:37;;;;;;;7.47;2.40;;;15.80;88.90;;;;;;5115740;28;20027;-74
2023/04/23 09:20:04;;;;;;;6.50;2.25;;;15.90;90.20;;;;;;5115702;28;20079;-74
2023/04/23 09:22:46;;;;;;;6.88;2.58;;;15.90;87.00;;;;;;5115628;28;20023;-74
2023/04/23 09:25:14;;;;;;;8.32;2.28;;;15.90;86.50;;;;;;5115669;28;20043;-75
2023/04/23 09:27:40;;;;;;;6.82;2.20;;;15.80;86.30;;;;;;5114429;28;20047;-75
2023/04/23 09:30:09;;;;;;;5.07;1.85;;;16.00;90.10;;;;;;5115510;28;20025;-75
2023/04/23 09:32:37;;;;;;;4.65;2.15;;;16.10;86.80;;;;;;5115468;28;20050;-75
2023/04/23 09:35:08;;;;;;;7.22;2.03;;;16.20;86.60;;;;;;5114326;28;20084;-74
2023/04/23 09:37:34;;;;;;;6.35;2.38;;;16.30;86.00;;;;;;5114529;28;20050;-74
2023/04/23 09:40:09;;;;;;;4.53;1.42;;;16.40;86.20;;;;;;5115184;28;20481;-75
2023/04/23 09:42:36;;;;;;;6.22;1.58;;;16.60;83.10;;;;;;5114454;28;20028;-74
2023/04/23 09:45:07;;;;;;;5.10;1.70;;;16.50;79.70;;;;;;5114317;28;20042;-73
2023/04/23 09:47:34;;;;;;;3.50;1.27;;;16.60;80.20;;;;;;5115069;28;20050;-73
2023/04/23 09:50:00;;;;;;;7.60;1.90;;;16.40;79.20;;;;;;5115082;28;20076;-73
2023/04/23 09:52:27;;;;;;;5.93;1.50;;;16.30;79.10;;;;;;5114005;28;20024;-73
2023/04/23 09:54:57;;;;;;;3.58;1.00;;;16.30;79.50;;;;;;5114040;28;20043;-73
2023/04/23 09:57:25;;;;;;;2.00;1.33;;;16.30;79.50;;;;;;5114909;28;20028;-73
2023/04/23 09:59:51;;;;;;;4.65;1.42;;;16.30;77.70;;;;;;5114908;28;20028;-73
2023/04/23 10:02:17;;;;;;;2.40;1.05;;;16.50;80.00;;;;;;5114696;28;20115;-73
2023/04/23 10:04:43;;;;;;;3.58;1.42;;;16.50;79.40;;;;;;5113902;28;20020;-73
2023/04/23 10:07:12;;;;;;;5.93;1.25;;;16.60;78.80;;;;;;5114711;28;20095;-73
2023/04/23 10:09:40;;;;;;;4.07;1.38;;;16.50;76.10;;;;;;5114683;28;20016;-73
2023/04/23 10:12:07;;;;;;;4.55;1.33;;;16.40;78.10;;;;;;5113759;28;20024;-74
2023/04/23 10:14:33;;;;;;;4.78;1.10;;;16.30;76.80;;;;;;5114622;28;20012;-74
2023/04/23 10:17:02;;;;;;;3.88;1.17;;;16.20;77.40;;;;;;5114556;28;20024;-74
2023/04/23 10:19:28;;;;;;;2.72;1.20;;;16.30;79.10;;;;;;5114518;28;20035;-74
2023/04/23 10:21:56;;;;;;;2.78;1.30;;;16.30;76.50;;;;;;5114442;28;20050;-74
2023/04/23 10:24:24;;;;;;;4.07;1.10;;;16.40;77.90;;;;;;5114453;28;20083;-74
2023/04/23 10:26:52;;;;;;;3.35;1.27;;;16.40;77.80;;;;;;5114387;28;20028;-74
2023/04/23 10:29:23;;;;;;;5.97;1.80;;;16.50;76.90;;;;;;5114283;28;20016;-74
2023/04/23 10:31:50;;;;;;;5.25;1.13;;;16.60;78.10;;;;;;5114253;28;20024;-74
2023/04/23 10:34:17;;;;;;;3.35;1.02;;;16.70;80.00;;;;;;5114215;28;20026;-73
2023/04/23 10:36:43;;;;;;;4.88;1.30;;;16.60;79.00;;;;;;5114220;28;20020;-74
2023/04/23 10:39:09;;;;;;;3.95;1.23;;;16.70;78.80;;;;;;5114083;28;20071;-74
2023/04/23 10:41:37;;;;;;;4.78;1.20;;;16.80;77.10;;;;;;5113208;28;20040;-74
2023/04/23 10:44:04;;;;;;;1.98;0.90;;;16.80;75.10;;;;;;5113029;28;20024;-74
2023/04/23 10:46:31;;;;;;;3.78;1.65;;;16.80;75.40;;;;;;5112995;28;20032;-74
2023/04/23 10:49:15;;;;;;;3.63;1.33;;;16.80;76.90;;;;;;5112989;28;20028;-74
2023/04/23 10:51:44;;;;;;;4.93;1.30;;;16.70;76.80;;;;;;5113453;28;20020;-75
2023/04/23 10:54:13;;;;;;;5.20;1.55;;;16.70;76.50;;;;;;5112880;28;20084;-74
2023/04/23 10:56:39;;;;;;;3.45;1.30;;;16.70;77.40;;;;;;5113873;28;20106;-74
2023/04/23 10:59:19;;;;;;;4.10;1.20;;;16.60;76.80;;;;;;5113831;28;20469;-74
2023/04/23 11:01:47;;;;;;;2.08;1.40;;;16.60;76.70;;;;;;5112636;28;20024;-75
2023/04/23 11:04:27;;;;;;;2.25;1.20;;;16.70;76.50;;;;;;5113814;28;20032;-74
2023/04/23 11:07:07;;;;;;;3.15;1.35;;;16.60;76.80;;;;;;5113769;28;20043;-74
2023/04/23 11:09:47;;;;;;;2.75;1.40;;;16.70;79.50;;;;;;5113645;28;20024;-74
2023/04/23 11:12:19;;;;;;;2.22;1.38;;;16.70;78.60;;;;;;5113835;28;20030;-74
2023/04/23 11:14:49;;;;;;;4.05;1.60;;;16.70;78.30;;;;;;5112650;28;20023;-74
2023/04/23 11:17:30;;;;;;;5.18;1.58;;;16.80;78.70;;;;;;5112584;28;20087;-74
2023/04/23 11:20:17;;;;;;;4.20;1.80;;;17.00;81.80;;;;;;5113663;28;20054;-74
2023/04/23 11:22:45;;;;;;;3.10;1.55;;;17.00;77.90;;;;;;5113555;28;20053;-74
2023/04/23 11:25:12;;;;;;;4.55;1.55;;;17.10;79.40;;;;;;5113501;28;20020;-74
2023/04/23 11:27:42;;;;;;;3.92;1.17;;;17.10;77.20;;;;;;5113420;28;20110;-74
2023/04/23 11:30:21;;;;;;;4.70;2.05;;;17.10;75.50;;;;;;5113437;28;20016;-74
2023/04/23 11:32:49;;;;;;;4.43;1.63;;;17.00;76.20;;;;;;5113419;28;20079;-74
2023/04/23 11:35:17;;;;;;;5.07;1.60;;;16.90;77.00;;;;;;5113378;28;20623;-74
2023/04/23 11:37:44;;;;;;;4.00;1.65;;;16.90;76.50;;;;;;5113520;28;20083;-74
2023/04/23 11:40:21;;;;;;;4.05;1.48;;;16.80;78.00;;;;;;5113342;28;20054;-74
2023/04/23 11:42:53;;;;;;;3.03;1.20;;;16.90;78.30;;;;;;5113538;28;20024;-74
2023/04/23 11:45:27;;;;;;;6.55;1.60;;;16.90;77.80;;;;;;5113402;28;20034;-74
2023/04/23 11:47:58;;;;;;;2.97;1.38;;;16.90;77.00;;;;;;5112233;28;20032;-74
2023/04/23 11:50:29;;;;;;;2.28;1.55;;;17.00;76.90;;;;;;5113444;28;20013;-74
2023/04/23 11:52:56;;;;;;;5.43;1.50;;;17.10;78.90;;;;;;5112161;28;20035;-74
2023/04/23 11:55:22;;;;;;;3.83;1.42;;;17.10;78.00;;;;;;5113226;28;20024;-75
2023/04/23 11:57:49;;;;;;;6.47;1.60;;;17.10;76.50;;;;;;5113224;28;20023;-74
2023/04/23 12:00:20;;;;;;;2.70;1.27;;;17.10;76.40;;;;;;5113184;28;20031;-74
2023/04/23 12:02:53;;;;;;;2.55;1.35;;;17.20;76.90;;;;;;5114315;28;20070;-74
2023/04/23 12:05:31;;;;;;;4.00;1.40;;;17.20;76.50;;;;;;5117152;28;20024;-74
2023/04/23 12:08:16;;;;;;;5.03;1.55;;;17.10;76.30;;;;;;5117106;28;20077;-74
2023/04/23 12:10:54;;;;;;;4.43;1.45;;;17.10;78.30;;;;;;5117111;28;20469;-74
2023/04/23 12:13:26;;;;;;;5.07;1.80;;;17.30;80.00;;;;;;5117188;28;20012;-74
2023/04/23 12:15:55;;;;;;;2.13;0.98;;;17.30;79.00;;;;;;5117003;28;20028;-74
2023/04/23 12:18:27;;;;;;;3.28;1.23;;;17.40;75.20;;;;;;5116918;28;20020;-74
2023/04/23 12:20:52;;;;;;;2.45;1.10;;;17.40;75.90;;;;;;5116921;28;20026;-74
2023/04/23 12:23:24;;;;;;;1.92;1.50;;;17.50;75.90;;;;;;5115825;28;20028;-74
2023/04/23 12:25:53;;;;;;;4.05;1.50;;;17.60;77.10;;;;;;5115735;28;20032;-74
2023/04/23 12:28:22;;;;;;;2.40;1.20;;;17.80;75.50;;;;;;5115653;28;20034;-74
2023/04/23 12:30:48;;;;;;;1.77;1.05;;;17.80;71.00;;;;;;5116650;28;20080;-74
2023/04/23 12:33:15;;;;;;;3.60;1.33;;;17.80;70.70;;;;;;5116552;28;20039;-74
2023/04/23 12:35:51;;;;;;;5.22;1.30;;;17.80;73.90;;;;;;5115586;28;20039;-74